Hansen, Nebraska
Current Conditions -  °F | °C
As of 12:53 PM on Thursday 23 Oct 2014 (Local Time) from KHSI Reporting Station
Moderate Fog Moderate Fog  
Wind Chill: 12°   Ceiling: 200
Heat Index: 12°   Visibility: 0.25mi
Dew Point: 11°   Wind: 3mph
Humidity: 93%   Direction: 230°SW
Pressure: 30.1"   Gusts: NA
Location:  40.5551°N, 98.369°W
Report Text: KHSI 231753Z AUTO 23003KT 1/4SM FG VV002 12/11 A3010 RMK AO2 SLP193 T01220111 10128 20100 58002
Loading
Personal Weather Stations






























Interactive Weather Map
Tropical Storm Tracking
New forecast layout! Learn more

10-Day Weather Forecast

Advertisements
Track Severe Weather on mobile